This is the latest recevied weather packets stored in our database for station/object YO8RIX. If no packets are shown the sender has not sent any weather packets the latest 10 day(s).
| Time | Temp. | Humidity | Pressure | Rain* | Wind** | Luminosity | Snow |
|---|---|---|---|---|---|---|---|
| 1777850737 | 8.33° C | 75% | 1017.2 hPa | 0 mm | - | 0 W/m² | - |
| 1777848342 | 8.89° C | 72% | 1017.3 hPa | 0 mm | - | 0 W/m² | - |
| 1777847138 | 9.44° C | 68% | 1017.4 hPa | 0 mm | - | 0 W/m² | - |
| 1777841720 | 11.11° C | 62% | 1017.8 hPa | 0 mm | - | 0 W/m² | - |
| 1777839344 | 11.67° C | 61% | 1017.9 hPa | 0 mm | - | 0 W/m² | - |
| 1777836325 | 12.78° C | 57% | 1018.1 hPa | 0 mm | - | 0 W/m² | - |
| 1777835118 | 13.33° C | 55% | 1018.1 hPa | 0 mm | - | 0 W/m² | - |
| 1777834534 | 13.33° C | 54% | 1018 hPa | 0 mm | - | 0 W/m² | - |
| 1777833931 | 13.89° C | 54% | 1018.1 hPa | 0 mm | - | 0 W/m² | - |
| 1777832118 | 14.44° C | 53% | 1018.2 hPa | 0 mm | - | 0 W/m² | - |
| 1777831555 | 14.44° C | 52% | 1018.2 hPa | 0 mm | - | 0 W/m² | - |
| 1777829119 | 16.11° C | 49% | 1018.2 hPa | 0 mm | - | 4 W/m² | - |
| 1777825535 | 18.33° C | 42% | 1018.5 hPa | 0 mm | - | 29 W/m² | - |
| 1777823724 | 18.89° C | 41% | 1018.7 hPa | 0 mm | - | 35 W/m² | - |
| 1777820121 | 18.89° C | 40% | 1019.3 hPa | 0 mm | - | 94 W/m² | - |
| 1777815933 | 18.89° C | 39% | 1019.8 hPa | 0 mm | - | 124 W/m² | - |
| 1777814141 | 18.89° C | 39% | 1020.2 hPa | 0 mm | - | 286 W/m² | - |
| 1777808727 | 17.22° C | 38% | 1021.3 hPa | 0 mm | - | 577 W/m² | - |
| 1777805123 | 17.22° C | 38% | 1022.1 hPa | 0 mm | - | 410 W/m² | - |
| 1777801521 | 16.11° C | 41% | 1022.8 hPa | 0 mm | - | 643 W/m² | - |
| 1777793128 | 13.33° C | 48% | 1024 hPa | 0 mm | - | 456 W/m² | - |
| 1777792530 | 12.78° C | 52% | 1024.1 hPa | 0 mm | - | 435 W/m² | - |
| 1777787130 | 8.89° C | 66% | 1024 hPa | 0 mm | - | 198 W/m² | - |
| 1777783528 | 5° C | 79% | 1023.8 hPa | 0 mm | - | 121 W/m² | - |
| 1777780548 | 3.33° C | 84% | 1023.7 hPa | 0 mm | - | 38 W/m² | - |
* Rain latest hour (hover to see other rain measurements)
** Current wind speed in m/s (hover to see current wind gust speed)